createdAt,value
2017-04-28T00:00:13.259Z,979.6
2017-04-28T00:01:16.351Z,979.5
2017-04-28T00:02:18.821Z,979.6
2017-04-28T00:03:21.641Z,979.6
2017-04-28T00:04:24.112Z,979.6
2017-04-28T00:05:27.238Z,979.6
2017-04-28T00:06:30.673Z,979.2
2017-04-28T00:07:33.784Z,979.5
2017-04-28T00:08:36.254Z,979.5
2017-04-28T00:09:39.342Z,979.5
2017-04-28T00:10:41.745Z,979.5
2017-04-28T00:11:45.200Z,979.5
2017-04-28T00:12:47.655Z,979.5
2017-04-28T00:13:50.765Z,979.5
2017-04-28T00:14:53.223Z,979.5
2017-04-28T00:15:55.653Z,979.5
2017-04-28T00:16:58.110Z,979.5
2017-04-28T00:18:00.487Z,979.5
2017-04-28T00:19:02.931Z,979.5
2017-04-28T00:20:07.344Z,979.5
2017-04-28T00:21:09.807Z,979.5
2017-04-28T00:22:12.274Z,979.4
2017-04-28T00:23:14.684Z,979.5
2017-04-28T00:24:19.840Z,979.4
2017-04-28T00:25:22.255Z,979.4
2017-04-28T00:26:24.753Z,979.5
2017-04-28T00:27:27.257Z,979.5
2017-04-28T00:28:29.663Z,979.5
2017-04-28T00:29:32.094Z,979.5
2017-04-28T00:30:35.530Z,979.5
2017-04-28T00:31:38.036Z,979.5
2017-04-28T00:32:40.490Z,979.5
2017-04-28T00:33:42.990Z,979.5
2017-04-28T00:34:45.424Z,979.4
2017-04-28T00:35:47.884Z,979.4
2017-04-28T00:36:50.373Z,979.4
2017-04-28T00:37:52.805Z,979.4
2017-04-28T00:38:55.229Z,979.4
2017-04-28T00:39:57.707Z,979.4
2017-04-28T00:41:00.329Z,979.4
2017-04-28T00:42:02.753Z,979.3
2017-04-28T00:43:05.149Z,979.3
2017-04-28T00:44:09.055Z,979.4
2017-04-28T00:45:13.068Z,979.4
2017-04-28T00:46:15.451Z,979.4
2017-04-28T00:47:18.558Z,979.4
2017-04-28T00:48:21.007Z,979.4
2017-04-28T00:49:23.447Z,979.4
2017-04-28T00:50:25.921Z,979.3
2017-04-28T00:51:28.433Z,979.3
2017-04-28T00:52:30.870Z,979.3
2017-04-28T00:53:33.357Z,979.3
2017-04-28T00:54:35.781Z,979.4
2017-04-28T00:55:38.206Z,979.3
2017-04-28T00:56:40.670Z,979.3
2017-04-28T00:57:43.192Z,979.3
2017-04-28T00:58:45.664Z,979.4
2017-04-28T00:59:48.103Z,979.4
2017-04-28T01:00:50.617Z,979.3
2017-04-28T01:01:53.070Z,979.3
2017-04-28T01:02:55.561Z,979.4
2017-04-28T01:03:57.953Z,979.3
2017-04-28T01:05:00.283Z,979.4
2017-04-28T01:06:02.674Z,979.4
2017-04-28T01:07:05.131Z,979.3
2017-04-28T01:08:07.606Z,979.4
2017-04-28T01:09:10.072Z,979.4
2017-04-28T01:10:12.472Z,979.4
2017-04-28T01:11:14.870Z,979.3
2017-04-28T01:12:17.258Z,979.3
2017-04-28T01:13:19.677Z,979.3
2017-04-28T01:14:25.406Z,979.3
2017-04-28T01:15:27.791Z,979.3
2017-04-28T01:16:30.172Z,979.1
2017-04-28T01:17:32.605Z,979.3
2017-04-28T01:18:34.980Z,979.3
2017-04-28T01:19:37.422Z,979.3
2017-04-28T01:20:39.790Z,979.3
2017-04-28T01:21:42.222Z,979.4
2017-04-28T01:22:44.578Z,979.3
2017-04-28T01:23:47.020Z,979.3
2017-04-28T01:24:49.422Z,979.3
2017-04-28T01:25:51.888Z,979.3
2017-04-28T01:26:54.267Z,979.3
2017-04-28T01:27:56.657Z,979.3
2017-04-28T01:28:59.147Z,979.3
2017-04-28T01:30:01.525Z,979.3
2017-04-28T01:31:03.906Z,979.2
2017-04-28T01:32:06.317Z,979.2
2017-04-28T01:33:08.833Z,979.2
2017-04-28T01:34:11.247Z,979.2
2017-04-28T01:35:13.688Z,979.2
2017-04-28T01:36:16.113Z,979.2
2017-04-28T01:37:18.538Z,979.2
2017-04-28T01:38:20.883Z,979.2
2017-04-28T01:39:23.328Z,979.2
2017-04-28T01:40:25.714Z,979.2
2017-04-28T01:41:28.575Z,979.2
2017-04-28T01:42:30.953Z,979.2
2017-04-28T01:43:33.304Z,979.2
2017-04-28T01:44:39.453Z,979.2
2017-04-28T01:45:41.904Z,979.1
2017-04-28T01:46:44.340Z,979.1
2017-04-28T01:47:46.750Z,978.9
2017-04-28T01:48:49.159Z,979.2
2017-04-28T01:49:51.621Z,979.1
2017-04-28T01:50:54.031Z,979.1
2017-04-28T01:51:56.497Z,979.1
2017-04-28T01:52:58.918Z,979.1
2017-04-28T01:54:01.298Z,979.1
2017-04-28T01:55:04.013Z,979.1
2017-04-28T01:56:06.426Z,979
2017-04-28T01:57:08.782Z,979
2017-04-28T01:58:11.257Z,979
2017-04-28T01:59:13.717Z,979
2017-04-28T02:00:16.111Z,979
2017-04-28T02:01:18.461Z,979
2017-04-28T02:02:20.848Z,979
2017-04-28T02:03:23.249Z,979
2017-04-28T02:04:25.622Z,979
2017-04-28T02:05:27.974Z,978.9
2017-04-28T02:06:30.394Z,979
2017-04-28T02:07:32.798Z,979
2017-04-28T02:08:35.188Z,979
2017-04-28T02:09:37.623Z,978.9
2017-04-28T02:10:39.992Z,979
2017-04-28T02:11:42.367Z,979
2017-04-28T02:12:44.710Z,979
2017-04-28T02:13:47.144Z,979
2017-04-28T02:16:01.240Z,979
2017-04-28T02:17:03.628Z,978.9
2017-04-28T02:18:06.023Z,978.9
2017-04-28T02:19:08.401Z,978.9
2017-04-28T02:20:10.743Z,978.9
2017-04-28T02:21:13.123Z,978.9
2017-04-28T02:22:15.467Z,978.9
2017-04-28T02:23:17.936Z,978.9
2017-04-28T02:24:20.340Z,978.9
2017-04-28T02:26:36.078Z,978.9
2017-04-28T02:27:38.476Z,978.9
2017-04-28T02:28:40.907Z,978.9
2017-04-28T02:29:43.321Z,978.9
2017-04-28T02:30:45.700Z,978.9
2017-04-28T02:31:48.114Z,978.9
2017-04-28T02:32:50.496Z,978.9
2017-04-28T02:33:52.887Z,978.9
2017-04-28T02:34:55.282Z,978.8
2017-04-28T02:35:57.691Z,978.9
2017-04-28T02:37:00.073Z,978.8
2017-04-28T02:38:02.441Z,978.8
2017-04-28T02:39:04.862Z,978.8
2017-04-28T02:40:07.265Z,978.9
2017-04-28T02:41:09.707Z,978.8
2017-04-28T02:42:12.126Z,978.8
2017-04-28T02:43:14.540Z,978.8
2017-04-28T02:44:17.038Z,978.8
2017-04-28T02:45:19.476Z,978.9
2017-04-28T02:46:21.834Z,978.9
2017-04-28T02:47:24.193Z,978.9
2017-04-28T02:48:26.586Z,978.9
2017-04-28T02:49:28.976Z,978.9
2017-04-28T02:50:31.376Z,978.8
2017-04-28T02:51:33.773Z,978.9
2017-04-28T02:52:36.145Z,978.8
2017-04-28T02:53:38.583Z,978.8
2017-04-28T02:54:40.959Z,978.9
2017-04-28T02:55:43.847Z,978.9
2017-04-28T02:56:46.226Z,978.8
2017-04-28T02:57:48.658Z,978.9
2017-04-28T02:58:51.084Z,978.9
2017-04-28T02:59:53.489Z,978.9
2017-04-28T03:00:55.859Z,978.9
2017-04-28T03:01:58.243Z,978.9
2017-04-28T03:03:00.728Z,978.8
2017-04-28T03:04:03.078Z,978.9
2017-04-28T03:05:05.500Z,978.9
2017-04-28T03:06:07.897Z,978.9
2017-04-28T03:07:10.345Z,978.9
2017-04-28T03:08:12.761Z,978.8
2017-04-28T03:09:15.137Z,978.9
2017-04-28T03:10:17.568Z,978.9
2017-04-28T03:11:20.046Z,978.9
2017-04-28T03:12:22.392Z,978.9
2017-04-28T03:13:24.789Z,978.9
2017-04-28T03:14:27.220Z,978.9
2017-04-28T03:15:29.617Z,978.9
2017-04-28T03:16:32.012Z,978.9
2017-04-28T03:17:34.368Z,978.8
2017-04-28T03:18:36.767Z,978.9
2017-04-28T03:19:39.210Z,978.9
2017-04-28T03:20:41.575Z,978.9
2017-04-28T03:21:43.967Z,978.8
2017-04-28T03:22:46.312Z,978.9
2017-04-28T03:23:48.701Z,978.9
2017-04-28T03:24:51.096Z,978.9
2017-04-28T03:25:53.558Z,978.8
2017-04-28T03:26:55.936Z,978.9
2017-04-28T03:27:58.335Z,978.8
2017-04-28T03:29:00.723Z,978.8
2017-04-28T03:30:03.121Z,978.8
2017-04-28T03:31:05.482Z,978.8
2017-04-28T03:32:07.900Z,978.8
2017-04-28T03:33:10.642Z,978.9
2017-04-28T03:34:13.050Z,978.8
2017-04-28T03:35:15.407Z,978.8
2017-04-28T03:36:17.813Z,978.8
2017-04-28T03:37:20.250Z,978.8
2017-04-28T03:38:22.621Z,978.8
2017-04-28T03:39:25.048Z,978.8
2017-04-28T03:40:27.421Z,978.8
2017-04-28T03:41:29.805Z,978.7
2017-04-28T03:42:32.146Z,978.8
2017-04-28T03:43:34.545Z,978.8
2017-04-28T03:44:37.074Z,978.8
2017-04-28T03:45:39.514Z,978.7
2017-04-28T03:46:41.978Z,978.8
2017-04-28T03:47:44.429Z,978.8
2017-04-28T03:48:46.881Z,978.7
2017-04-28T03:49:49.329Z,978.8
2017-04-28T03:50:51.711Z,978.8
2017-04-28T03:51:54.081Z,978.8
2017-04-28T03:52:56.472Z,978.8
2017-04-28T03:53:58.865Z,978.6
2017-04-28T03:55:01.271Z,978.8
2017-04-28T03:56:03.665Z,978.8
2017-04-28T03:57:06.078Z,978.7
2017-04-28T03:58:08.497Z,978.8
2017-04-28T03:59:10.842Z,978.7
2017-04-28T04:00:13.796Z,978.7
2017-04-28T04:01:16.187Z,978.7
2017-04-28T04:02:18.586Z,978.8
2017-04-28T04:03:21.006Z,978.8
2017-04-28T04:04:23.518Z,978.8
2017-04-28T04:05:25.976Z,978.8
2017-04-28T04:06:28.513Z,978.6
2017-04-28T04:07:30.916Z,978.8
2017-04-28T04:08:33.415Z,978.9
2017-04-28T04:09:35.875Z,978.8
2017-04-28T04:10:38.276Z,978.8
2017-04-28T04:11:40.705Z,978.8
2017-04-28T04:12:43.065Z,978.8
2017-04-28T04:13:45.509Z,978.8
2017-04-28T04:14:47.995Z,978.9
2017-04-28T04:15:50.420Z,978.8
2017-04-28T04:16:53.025Z,978.8
2017-04-28T04:17:55.515Z,978.8
2017-04-28T04:18:57.984Z,978.8
2017-04-28T04:20:00.440Z,978.8
2017-04-28T04:21:02.943Z,978.4
2017-04-28T04:22:05.364Z,978.8
2017-04-28T04:23:07.759Z,978.7
2017-04-28T04:24:10.163Z,978.7
2017-04-28T04:25:12.614Z,978.7
2017-04-28T04:26:15.075Z,978.7
2017-04-28T04:27:17.522Z,978.8
2017-04-28T04:28:19.973Z,978.8
2017-04-28T04:29:31.294Z,978.8
2017-04-28T04:30:33.676Z,978.8
2017-04-28T04:31:36.124Z,978.8
2017-04-28T04:32:38.601Z,978.8
2017-04-28T04:33:41.010Z,978.8
2017-04-28T04:34:43.468Z,978.8
2017-04-28T04:35:45.958Z,978.8
2017-04-28T04:36:48.412Z,978.7
2017-04-28T04:37:50.858Z,978.8
2017-04-28T04:38:53.333Z,978.8
2017-04-28T04:39:55.766Z,978.9
2017-04-28T04:40:58.164Z,978.8
2017-04-28T04:42:00.558Z,978.9
2017-04-28T04:43:03.005Z,978.8
2017-04-28T04:44:05.538Z,978.9
2017-04-28T04:45:07.979Z,978.8
2017-04-28T04:46:10.413Z,978.8
2017-04-28T04:47:12.919Z,978.8
2017-04-28T04:48:15.436Z,978.8
2017-04-28T04:49:17.903Z,978.9
2017-04-28T04:50:20.372Z,978.8
2017-04-28T04:51:22.755Z,978.7
2017-04-28T04:52:25.296Z,978.8
2017-04-28T04:53:28.000Z,978.8
2017-04-28T04:54:30.401Z,978.8
2017-04-28T04:55:32.914Z,978.9
2017-04-28T04:56:35.433Z,978.8
2017-04-28T04:57:38.065Z,978.6
2017-04-28T04:58:40.430Z,978.8
2017-04-28T04:59:43.794Z,978.8
2017-04-28T05:00:46.236Z,978.8
2017-04-28T05:01:48.613Z,978.8
2017-04-28T05:02:51.083Z,978.8
2017-04-28T05:03:53.540Z,978.8
2017-04-28T05:04:56.151Z,978.8
2017-04-28T05:05:58.579Z,978.8
2017-04-28T05:07:01.139Z,978.8
2017-04-28T05:08:03.674Z,978.7
2017-04-28T05:09:06.218Z,978.7
2017-04-28T05:10:08.661Z,978.8
2017-04-28T05:11:11.124Z,978.7
2017-04-28T05:12:13.544Z,978.8
2017-04-28T05:13:16.104Z,978.7
2017-04-28T05:14:19.078Z,978.7
2017-04-28T05:15:21.555Z,978.8
2017-04-28T05:16:24.028Z,978.7
2017-04-28T05:17:26.996Z,978.7
2017-04-28T05:18:30.372Z,978.8
2017-04-28T05:19:32.908Z,978.8
2017-04-28T05:20:35.595Z,978.5
2017-04-28T05:21:38.094Z,978.7
2017-04-28T05:22:40.711Z,978.7
2017-04-28T05:23:43.357Z,978.4
2017-04-28T05:24:46.091Z,978.6
2017-04-28T05:25:48.666Z,978.6
2017-04-28T05:26:51.267Z,978.6
2017-04-28T05:27:53.800Z,978.6
2017-04-28T05:28:56.265Z,978.7
2017-04-28T05:30:00.652Z,978.7
2017-04-28T05:31:03.172Z,978.7
2017-04-28T05:32:05.654Z,978.7
2017-04-28T05:33:08.220Z,978.8
2017-04-28T05:34:10.821Z,978.7
2017-04-28T05:35:13.724Z,978.7
2017-04-28T05:36:16.339Z,978.7
2017-04-28T05:37:18.827Z,978.4
2017-04-28T05:38:21.344Z,978.7
2017-04-28T05:39:24.047Z,978.4
2017-04-28T05:40:26.740Z,978.7
2017-04-28T05:41:29.317Z,978.7
2017-04-28T05:42:32.227Z,978.7
2017-04-28T05:43:34.736Z,978.7
2017-04-28T05:44:37.246Z,978.6
2017-04-28T05:45:39.757Z,978.4
2017-04-28T05:46:42.249Z,978.6
2017-04-28T05:47:44.968Z,978.6
2017-04-28T05:48:48.036Z,978.7
2017-04-28T05:49:50.545Z,978.7
2017-04-28T05:50:53.141Z,978.7
2017-04-28T05:51:55.816Z,978.7
2017-04-28T05:52:58.224Z,978.7
2017-04-28T05:54:00.660Z,978.6
2017-04-28T05:55:03.247Z,978.6
2017-04-28T05:56:05.973Z,978.6
2017-04-28T05:57:08.465Z,978.6
2017-04-28T05:58:10.969Z,978.6
2017-04-28T05:59:13.597Z,978.4
2017-04-28T06:00:16.744Z,978.6
2017-04-28T06:01:19.172Z,978.6
2017-04-28T06:02:21.636Z,978.6
2017-04-28T06:03:24.129Z,978.4
2017-04-28T06:04:26.502Z,978.6
2017-04-28T06:05:29.204Z,978.7
2017-04-28T06:06:31.793Z,978.7
2017-04-28T06:07:34.374Z,978.6
2017-04-28T06:08:36.765Z,978.7
2017-04-28T06:09:39.290Z,978.6
2017-04-28T06:10:41.788Z,978.6
2017-04-28T06:11:44.324Z,978.7
2017-04-28T06:12:46.816Z,978.6
2017-04-28T06:13:49.251Z,978.6
2017-04-28T06:14:51.817Z,978.6
2017-04-28T06:15:54.384Z,978.6
2017-04-28T06:17:00.699Z,978.6
2017-04-28T06:18:03.345Z,978.6
2017-04-28T06:19:05.840Z,978.6
2017-04-28T06:20:08.353Z,978.6
2017-04-28T06:21:11.041Z,978.6
2017-04-28T06:22:13.647Z,978.7
2017-04-28T06:23:16.444Z,978.7
2017-04-28T06:24:18.952Z,978.6
2017-04-28T06:25:21.588Z,978.6
2017-04-28T06:26:24.125Z,978.6
2017-04-28T06:27:27.233Z,978.6
2017-04-28T06:28:30.131Z,978.7
2017-04-28T06:29:32.606Z,978.7
2017-04-28T06:30:36.171Z,978.7
2017-04-28T06:31:38.623Z,978.7
2017-04-28T06:32:41.088Z,978.8
2017-04-28T06:33:53.632Z,978.6
2017-04-28T06:34:56.237Z,978.7
2017-04-28T06:35:58.758Z,978.7
2017-04-28T06:37:01.517Z,978.5
2017-04-28T06:38:04.774Z,978.6
2017-04-28T06:39:07.942Z,978.7
2017-04-28T06:40:10.517Z,978.7
2017-04-28T06:41:13.220Z,978.5
2017-04-28T06:42:16.561Z,978.7
2017-04-28T06:43:19.220Z,978.8
2017-04-28T06:44:21.808Z,978.8
2017-04-28T06:45:24.570Z,978.8
2017-04-28T06:46:27.355Z,978.8
2017-04-28T06:47:30.811Z,978.8
2017-04-28T06:48:34.189Z,978.9
2017-04-28T06:49:36.838Z,978.8
2017-04-28T06:50:40.110Z,978.9
2017-04-28T06:51:42.677Z,978.9
2017-04-28T06:52:45.146Z,978.8
2017-04-28T06:53:47.690Z,978.8
2017-04-28T06:54:50.850Z,978.8
2017-04-28T06:55:54.147Z,978.8
2017-04-28T06:56:57.667Z,978.8
2017-04-28T06:58:01.726Z,978.6
2017-04-28T06:59:04.465Z,978.7
2017-04-28T07:00:08.815Z,978.7
2017-04-28T07:01:11.479Z,978.7
2017-04-28T07:02:14.062Z,978.7
2017-04-28T07:03:16.647Z,978.7
2017-04-28T07:04:19.233Z,978.7
2017-04-28T07:05:21.821Z,978.7
2017-04-28T07:06:24.320Z,978.6
2017-04-28T07:07:26.818Z,978.7
2017-04-28T07:08:30.588Z,978.6
2017-04-28T07:09:33.137Z,978.6
2017-04-28T07:10:35.654Z,978.7
2017-04-28T07:11:38.179Z,978.6
2017-04-28T07:12:40.704Z,978.6
2017-04-28T07:13:44.370Z,978.6
2017-04-28T07:14:47.044Z,978.6
2017-04-28T07:15:49.451Z,978.2
2017-04-28T07:16:52.096Z,978.7
2017-04-28T07:17:54.543Z,978.5
2017-04-28T07:18:57.090Z,978.7
2017-04-28T07:19:59.581Z,978.7
2017-04-28T07:21:02.398Z,978.7
2017-04-28T07:22:04.979Z,978.7
2017-04-28T07:23:07.561Z,978.7
2017-04-28T07:24:10.490Z,978.3
2017-04-28T07:25:12.946Z,978.6
2017-04-28T07:26:15.562Z,978.7
2017-04-28T07:27:19.359Z,978.7
2017-04-28T07:28:22.719Z,978.7
2017-04-28T07:29:25.426Z,978.7
2017-04-28T07:30:27.965Z,978.7
2017-04-28T07:31:31.132Z,978.7
2017-04-28T07:32:36.436Z,978.7
2017-04-28T07:33:39.565Z,978.3
2017-04-28T07:34:43.496Z,978.7
2017-04-28T07:35:47.202Z,978.7
2017-04-28T07:36:50.514Z,978.5
2017-04-28T07:37:54.730Z,978.7
2017-04-28T07:38:57.327Z,978.7
2017-04-28T07:40:00.276Z,978.6
2017-04-28T07:41:02.885Z,978.6
2017-04-28T07:42:05.444Z,978.6
2017-04-28T07:43:09.426Z,978.6
2017-04-28T07:44:12.037Z,978.6
2017-04-28T07:45:14.813Z,978.7
2017-04-28T07:46:17.386Z,978.6
2017-04-28T07:47:21.131Z,978.6
2017-04-28T07:48:25.149Z,978.5
2017-04-28T07:49:30.164Z,978.5
2017-04-28T07:50:34.262Z,978.6
2017-04-28T07:51:36.801Z,978.6
2017-04-28T07:52:39.942Z,978.5
2017-04-28T07:53:42.490Z,978.5
2017-04-28T07:54:45.765Z,978.5
2017-04-28T07:55:49.178Z,978.5
2017-04-28T07:56:51.649Z,978.5
2017-04-28T07:57:54.206Z,978.3
2017-04-28T07:58:56.807Z,978.5
2017-04-28T07:59:59.341Z,978.3
2017-04-28T08:01:02.376Z,978.5
2017-04-28T08:02:05.440Z,978.5
2017-04-28T08:03:07.938Z,978.5
2017-04-28T08:04:10.566Z,978.6
2017-04-28T08:05:13.049Z,978.4
2017-04-28T08:06:16.254Z,978.4
2017-04-28T08:07:18.850Z,978.5
2017-04-28T08:08:22.030Z,978.4
2017-04-28T08:09:25.254Z,978.5
2017-04-28T08:10:28.382Z,978.4
2017-04-28T08:11:31.971Z,978.5
2017-04-28T08:12:35.507Z,978.5
2017-04-28T08:13:39.242Z,978.5
2017-04-28T08:14:41.863Z,978.4
2017-04-28T08:15:45.686Z,978
2017-04-28T08:16:49.890Z,978.3
2017-04-28T08:17:53.020Z,978.3
2017-04-28T08:18:55.754Z,978.3
2017-04-28T08:19:58.409Z,978.4
2017-04-28T08:21:01.116Z,978.4
2017-04-28T08:22:05.005Z,978.4
2017-04-28T08:23:08.706Z,978.4
2017-04-28T08:24:11.212Z,978
2017-04-28T08:25:13.742Z,978.3
2017-04-28T08:26:16.293Z,978.4
2017-04-28T08:27:19.636Z,978.3
2017-04-28T08:28:31.600Z,978.4
2017-04-28T08:29:34.235Z,978.4
2017-04-28T08:30:38.198Z,978.4
2017-04-28T08:31:42.180Z,978.4
2017-04-28T08:32:48.053Z,978.3
2017-04-28T08:33:50.876Z,978.3
2017-04-28T08:34:53.986Z,978.3
2017-04-28T08:35:58.521Z,978.4
2017-04-28T08:37:01.139Z,978.4
2017-04-28T08:38:05.114Z,978.4
2017-04-28T08:39:08.818Z,978.2
2017-04-28T08:40:12.158Z,978.2
2017-04-28T08:41:18.562Z,978
2017-04-28T08:42:23.317Z,978.2
2017-04-28T08:43:25.948Z,978.3
2017-04-28T08:44:28.597Z,978
2017-04-28T08:45:31.447Z,978.2
2017-04-28T08:46:33.994Z,978.3
2017-04-28T08:48:45.489Z,978.1
2017-04-28T08:49:48.036Z,978.4
2017-04-28T08:50:50.653Z,978.3
2017-04-28T08:51:53.754Z,978.2
2017-04-28T08:52:56.337Z,977.9
2017-04-28T08:53:59.090Z,978.2
2017-04-28T08:55:02.758Z,978.3
2017-04-28T08:56:09.579Z,978.3
2017-04-28T08:57:12.708Z,978.4
2017-04-28T08:58:15.244Z,978.3
2017-04-28T08:59:19.058Z,977.9
2017-04-28T09:00:21.667Z,978.2
2017-04-28T09:01:24.312Z,978.1
2017-04-28T09:02:26.902Z,978
2017-04-28T09:03:30.993Z,978.1
2017-04-28T09:04:34.579Z,978.2
2017-04-28T09:05:38.159Z,978.3
2017-04-28T09:06:41.361Z,978.5
2017-04-28T09:07:43.934Z,978.3
2017-04-28T09:08:46.468Z,978.2
2017-04-28T09:09:52.276Z,978.2
2017-04-28T09:10:55.820Z,978.2
2017-04-28T09:11:59.546Z,978.2
2017-04-28T09:13:02.260Z,978.1
2017-04-28T09:14:05.642Z,978.1
2017-04-28T09:15:08.278Z,978.2
2017-04-28T09:16:11.427Z,978.2
2017-04-28T09:17:13.932Z,978.1
2017-04-28T09:18:16.777Z,978.1
2017-04-28T09:19:19.367Z,978.1
2017-04-28T09:20:24.656Z,978
2017-04-28T09:21:27.097Z,977.9
2017-04-28T09:22:30.669Z,978
2017-04-28T09:23:33.155Z,978
2017-04-28T09:24:36.047Z,978.1
2017-04-28T09:25:38.764Z,978.1
2017-04-28T09:26:43.373Z,978.3
2017-04-28T09:27:48.637Z,977.7
2017-04-28T09:28:51.392Z,978.1
2017-04-28T09:29:54.602Z,978.1
2017-04-28T09:30:58.245Z,978
2017-04-28T09:32:01.045Z,977.9
2017-04-28T09:33:04.260Z,977.9
2017-04-28T09:34:08.722Z,977.8
2017-04-28T09:35:13.027Z,978
2017-04-28T09:36:18.700Z,977.9
2017-04-28T09:37:21.252Z,978
2017-04-28T09:38:24.734Z,977.7
2017-04-28T09:39:27.713Z,978
2017-04-28T09:40:30.585Z,977.7
2017-04-28T09:41:35.028Z,977.8
2017-04-28T09:42:37.779Z,977.9
2017-04-28T09:43:40.413Z,977.9
2017-04-28T09:44:43.013Z,977.8
2017-04-28T09:45:46.298Z,978
2017-04-28T09:46:53.200Z,978
2017-04-28T09:47:56.548Z,978.1
2017-04-28T09:49:01.772Z,977.7
2017-04-28T09:50:05.977Z,978
2017-04-28T09:51:09.256Z,978
2017-04-28T09:52:13.840Z,977.7
2017-04-28T09:53:17.373Z,977.9
2017-04-28T09:54:21.126Z,977.8
2017-04-28T09:55:24.702Z,977.9
2017-04-28T09:56:28.551Z,977.4
2017-04-28T09:57:31.670Z,977.7
2017-04-28T09:58:35.801Z,977.7
2017-04-28T09:59:39.404Z,977.7
2017-04-28T10:00:42.106Z,977.8
2017-04-28T10:01:46.271Z,977.8
2017-04-28T10:02:49.047Z,977.9
2017-04-28T10:03:52.599Z,977.9
2017-04-28T10:04:56.179Z,977.9
2017-04-28T10:05:59.611Z,977.7
2017-04-28T10:07:05.241Z,977.9
2017-04-28T10:08:11.287Z,977.8
2017-04-28T10:09:20.242Z,977.6
2017-04-28T10:10:23.504Z,977.8
2017-04-28T10:11:26.695Z,977.9
2017-04-28T10:12:30.143Z,977.8
2017-04-28T10:13:33.766Z,977.9
2017-04-28T10:14:36.854Z,977.8
2017-04-28T10:15:39.793Z,977.6
2017-04-28T10:16:42.520Z,977.6
2017-04-28T10:17:46.764Z,977.8
2017-04-28T10:18:49.916Z,977.8
2017-04-28T10:19:53.480Z,977.8
2017-04-28T10:21:01.275Z,977.8
2017-04-28T10:22:04.456Z,977.8
2017-04-28T10:23:08.743Z,977.9
2017-04-28T10:24:11.338Z,977.8
2017-04-28T10:25:14.996Z,977.7
2017-04-28T10:26:18.845Z,977.7
2017-04-28T10:27:22.012Z,977.7
2017-04-28T10:28:24.573Z,977.6
2017-04-28T10:29:29.570Z,977.5
2017-04-28T10:30:32.738Z,977.6
2017-04-28T10:31:36.216Z,977.4
2017-04-28T10:32:39.406Z,977.5
2017-04-28T10:33:43.433Z,977.5
2017-04-28T10:34:47.310Z,977.5
2017-04-28T10:35:54.684Z,977.5
2017-04-28T10:36:58.328Z,977.6
2017-04-28T10:38:01.989Z,977.5
2017-04-28T10:39:07.532Z,977.5
2017-04-28T10:40:12.477Z,977.6
2017-04-28T10:41:15.608Z,977.6
2017-04-28T10:42:19.361Z,977.7
2017-04-28T10:43:23.136Z,977.6
2017-04-28T10:44:27.372Z,977.6
2017-04-28T10:45:31.263Z,977.6
2017-04-28T10:46:36.833Z,977.6
2017-04-28T10:47:40.667Z,977.5
2017-04-28T10:48:45.352Z,977.5
2017-04-28T10:49:55.725Z,977.4
2017-04-28T10:51:00.641Z,977.5
2017-04-28T10:52:06.049Z,977.3
2017-04-28T10:53:11.450Z,977.4
2017-04-28T10:54:16.267Z,977.4
2017-04-28T10:55:21.361Z,977.3
2017-04-28T10:56:23.934Z,977.4
2017-04-28T10:57:28.158Z,977.4
2017-04-28T10:58:32.130Z,977.4
2017-04-28T10:59:35.694Z,977.2
2017-04-28T11:00:40.226Z,977.3
2017-04-28T11:01:42.847Z,977.3
2017-04-28T11:02:50.551Z,977.1
2017-04-28T11:03:53.809Z,977.2
2017-04-28T11:04:56.635Z,977.1
2017-04-28T11:05:59.485Z,977.4
2017-04-28T11:07:05.538Z,977.3
2017-04-28T11:08:08.313Z,977.1
2017-04-28T11:09:11.618Z,977.3
2017-04-28T11:10:15.829Z,977.4
2017-04-28T11:11:20.132Z,977.4
2017-04-28T11:12:24.003Z,977.3
2017-04-28T11:13:27.444Z,977.3
2017-04-28T11:14:32.685Z,977.1
2017-04-28T11:15:37.138Z,977.2
2017-04-28T11:16:43.444Z,977.2
2017-04-28T11:17:48.208Z,977.3
2017-04-28T11:18:56.445Z,977.1
2017-04-28T11:20:02.790Z,977.3
2017-04-28T11:21:09.189Z,977.2
2017-04-28T11:22:13.730Z,977.3
2017-04-28T11:23:16.447Z,977.2
2017-04-28T11:24:19.859Z,977.1
2017-04-28T11:25:25.196Z,977.2
2017-04-28T11:26:30.926Z,977.1
2017-04-28T11:27:34.137Z,977.1
2017-04-28T11:28:39.787Z,977.1
2017-04-28T11:29:44.594Z,977.1
2017-04-28T11:30:48.494Z,977.1
2017-04-28T11:31:52.301Z,977.1
2017-04-28T11:32:55.385Z,977.3
2017-04-28T11:34:00.469Z,977.1
2017-04-28T11:35:07.525Z,977.3
2017-04-28T11:36:10.361Z,977.4
2017-04-28T11:37:13.677Z,977.4
2017-04-28T11:38:17.025Z,977.3
2017-04-28T11:39:20.303Z,977.3
2017-04-28T11:40:22.931Z,977.4
2017-04-28T11:41:28.323Z,977.4
2017-04-28T11:42:33.707Z,977.4
2017-04-28T11:43:39.987Z,977.4
2017-04-28T11:44:43.169Z,977.5
2017-04-28T11:45:49.768Z,977.5
2017-04-28T11:46:58.804Z,977.4
2017-04-28T11:48:01.634Z,977.4
2017-04-28T11:49:06.189Z,977.5
2017-04-28T11:50:09.779Z,977.3
2017-04-28T11:51:16.225Z,977.4
2017-04-28T11:52:21.090Z,977.2
2017-04-28T11:53:26.079Z,977.4
2017-04-28T11:54:31.127Z,977.4
2017-04-28T11:55:35.652Z,977.4
2017-04-28T11:56:40.004Z,977.4
2017-04-28T11:57:43.213Z,977.4
2017-04-28T11:58:46.766Z,977.4
2017-04-28T11:59:55.381Z,977.5
2017-04-28T12:00:59.133Z,977.4
2017-04-28T12:02:03.090Z,977.4
2017-04-28T12:03:07.871Z,977.5
2017-04-28T12:04:10.968Z,977.5
2017-04-28T12:05:13.539Z,977.5
2017-04-28T12:06:16.182Z,977.5
2017-04-28T12:07:21.644Z,977.4
2017-04-28T12:08:29.442Z,977.5
2017-04-28T12:09:48.349Z,977.5
2017-04-28T12:10:57.310Z,977.5
2017-04-28T12:12:01.345Z,977.5
2017-04-28T12:13:09.497Z,977.5
2017-04-28T12:14:15.682Z,977.5
2017-04-28T12:15:21.276Z,977.5
2017-04-28T12:16:28.477Z,977.5
2017-04-28T12:17:36.915Z,977.5
2017-04-28T12:18:42.542Z,977.5
2017-04-28T12:19:46.703Z,977.5
2017-04-28T12:20:49.505Z,977.5
2017-04-28T12:21:53.500Z,977.5
2017-04-28T12:22:56.200Z,977.5
2017-04-28T12:23:58.843Z,977.5
2017-04-28T12:25:03.037Z,977.2
2017-04-28T12:26:11.286Z,977.5
2017-04-28T12:27:17.771Z,977.5
2017-04-28T12:28:23.102Z,977.5
2017-04-28T12:29:27.764Z,977.5
2017-04-28T12:30:33.027Z,977.4
2017-04-28T12:31:39.886Z,977.4
2017-04-28T12:32:43.782Z,977.4
2017-04-28T12:33:47.217Z,977.5
2017-04-28T12:34:50.573Z,977.5
2017-04-28T12:35:57.006Z,977.5
2017-04-28T12:37:00.553Z,977.5
2017-04-28T12:38:03.599Z,977.4
2017-04-28T12:39:07.783Z,977.5
2017-04-28T12:40:16.347Z,977.1
2017-04-28T12:41:21.831Z,977.4
2017-04-28T12:42:26.491Z,977.4
2017-04-28T12:43:31.325Z,977.4
2017-04-28T12:44:34.720Z,977.3
2017-04-28T12:45:39.274Z,977.3
2017-04-28T12:46:43.404Z,977.4
2017-04-28T12:47:47.207Z,977.3
2017-04-28T12:48:55.573Z,977.5
2017-04-28T12:49:58.124Z,977.5
2017-04-28T12:51:04.285Z,977.4
2017-04-28T12:52:09.670Z,977.4
2017-04-28T12:53:14.605Z,977.5
2017-04-28T12:55:25.475Z,977.5
2017-04-28T12:56:29.825Z,977.5
2017-04-28T12:57:36.921Z,977.5
2017-04-28T12:58:43.947Z,977.6
2017-04-28T12:59:49.353Z,977.6
2017-04-28T13:00:56.780Z,977.6
2017-04-28T13:02:03.162Z,977.5
2017-04-28T13:03:08.294Z,977.5
2017-04-28T13:04:12.248Z,977.6
2017-04-28T13:05:16.481Z,977.6
2017-04-28T13:06:20.597Z,977.6
2017-04-28T13:07:25.095Z,977.4
2017-04-28T13:08:38.158Z,977.6
2017-04-28T13:09:42.416Z,977.7
2017-04-28T13:10:46.146Z,977.7
2017-04-28T13:11:50.528Z,977.7
2017-04-28T13:12:59.097Z,977.5
2017-04-28T13:14:02.673Z,977.5
2017-04-28T13:15:06.019Z,977.7
2017-04-28T13:16:10.972Z,977.5
2017-04-28T13:17:15.138Z,977.7
2017-04-28T13:18:20.283Z,977.7
2017-04-28T13:19:25.228Z,977.7
2017-04-28T13:20:29.322Z,977.7
2017-04-28T13:21:32.759Z,977.7
2017-04-28T13:22:39.341Z,977.7
2017-04-28T13:23:45.191Z,977.4
2017-04-28T13:24:48.049Z,977.5
2017-04-28T13:25:53.275Z,977.7
2017-04-28T13:27:00.179Z,977.7
2017-04-28T13:28:05.323Z,977.7
2017-04-28T13:29:10.481Z,977.8
2017-04-28T13:30:14.143Z,977.7
2017-04-28T13:31:17.918Z,977.8
2017-04-28T13:32:23.965Z,977.7
2017-04-28T13:33:28.002Z,977.8
2017-04-28T13:34:30.758Z,977.8
2017-04-28T13:35:38.122Z,977.8
2017-04-28T13:36:44.623Z,977.8
2017-04-28T13:37:54.924Z,977.8
2017-04-28T13:38:58.022Z,977.6
2017-04-28T13:40:05.180Z,977.6
2017-04-28T13:41:13.108Z,977.8
2017-04-28T13:42:17.500Z,977.8